Weather at Rancho Grande de Táchira Airport

Public forecast

Using degrees Celsius for public forecast. Weather courtesy of forecast.io.

Closest aviation weather report (METAR) to Rancho Grande de Táchira Airport

Closest report is Camilo Daza International Airport, 36.5 nm (67.7 km) WNW.

2024/05/27 01:00 (retrieved 10 minutes ago)

SKCC 270100Z VRB02KT 9999 SCT015 BKN050 28/24 Q1013

Closest aviation forecast (TAF) to Rancho Grande de Táchira Airport

Forecast is more than 12 hours old.

Closest forecast is San Antonio Del Tachira Airport, 30.3 nm (56.1 km) WNW.

2024/05/26 12:03 (retrieved 13 hours ago)

TAF TAF SVSA 261000Z 2612/2712 05007KT 9999 BKN020 TX30/2618Z TN16/2708Z TEMPO 2614/2618 15005KT 8000 RA OVC020